Time;durP1;ratioP1;P1;durP2;ratioP2;P2;SDS_P1;SDS_P2;PMS_P1;PMS_P2;Temp;Humidity;BMP_temperature;BMP_pressure;BME280_temperature;BME280_humidity;BME280_pressure;Samples;Min_cycle;Max_cycle;Signal;HPM_P1;HPM_P2
2021/04/04 00:01:09;;;;;;;16.33;12.95;;;;;;;2.55;68.15;96205.25;5099933;28;20043;-90
2021/04/04 00:03:34;;;;;;;16.85;13.43;;;;;;;2.56;69.07;96196.81;5116810;28;20093;-90
2021/04/04 00:06:00;;;;;;;18.58;13.85;;;;;;;2.46;69.31;96205.78;5100867;28;20032;-90
2021/04/04 00:08:25;;;;;;;18.15;13.45;;;;;;;2.39;67.21;96197.84;5099801;28;20115;-90
2021/04/04 00:10:51;;;;;;;15.85;13.15;;;;;;;2.34;68.77;96193.72;5099705;28;20027;-90
2021/04/04 00:13:17;;;;;;;19.65;14.23;;;;;;;2.61;69.68;96225.09;5099623;28;20028;-90
2021/04/04 00:15:42;;;;;;;20.67;13.93;;;;;;;2.36;69.76;96187.94;5099659;28;20070;-90
2021/04/04 00:18:08;;;;;;;17.95;13.55;;;;;;;2.27;68.88;96175.03;5099535;28;20020;-90
2021/04/04 00:20:34;;;;;;;18.55;14.02;;;;;;;2.55;70.95;96221.31;5099457;28;20172;-90
2021/04/04 00:23:00;;;;;;;19.10;13.75;;;;;;;2.52;70.99;96217.56;5099585;28;20028;-89
2021/04/04 00:25:26;;;;;;;15.75;12.88;;;;;;;2.37;69.62;96197.50;5099451;28;20028;-90
2021/04/04 00:27:51;;;;;;;42.47;14.40;;;;;;;2.47;69.52;96222.63;5100315;28;20019;-91
2021/04/04 00:30:19;;;;;;;21.90;13.27;;;;;;;2.61;69.40;96220.47;5099846;28;20016;-90
2021/04/04 00:32:45;;;;;;;19.15;13.32;;;;;;;2.60;68.91;96216.25;5100319;28;20036;-90
2021/04/04 00:35:12;;;;;;;18.73;12.88;;;;;;;2.85;69.16;96255.34;5100203;28;20028;-89
2021/04/04 00:37:38;;;;;;;16.42;12.45;;;;;;;2.53;69.07;96200.28;5099274;28;20503;-89
2021/04/04 00:40:15;;;;;;;16.00;12.90;;;;;;;2.67;69.04;96230.75;5098607;28;20111;-91
2021/04/04 00:42:41;;;;;;;16.77;12.65;;;;;;;2.56;68.08;96206.78;5098841;28;20032;-90
2021/04/04 00:45:13;;;;;;;15.70;11.85;;;;;;;2.76;67.35;96212.19;5100272;28;20026;-90
2021/04/04 00:47:38;;;;;;;15.93;12.40;;;;;;;2.79;68.92;96235.50;5099220;28;20028;-90
2021/04/04 00:50:07;;;;;;;16.48;11.05;;;;;;;2.77;66.05;96260.06;5099146;28;20016;-90
2021/04/04 00:52:33;;;;;;;18.60;12.85;;;;;;;2.82;67.69;96256.13;5098347;28;20056;-90
2021/04/04 00:54:59;;;;;;;15.70;12.10;;;;;;;2.88;67.39;96259.91;5100035;28;20020;-91
2021/04/04 00:57:25;;;;;;;16.02;12.35;;;;;;;2.63;67.61;96203.97;5099104;28;20024;-90
2021/04/04 00:59:51;;;;;;;15.18;12.13;;;;;;;2.61;68.06;96212.44;5099254;28;20021;-90
2021/04/04 01:02:17;;;;;;;19.77;12.80;;;;;;;2.60;70.41;96220.88;5098623;28;20028;-91
2021/04/04 01:04:45;;;;;;;14.23;11.98;;;;;;;2.68;68.91;96224.97;5098787;28;20030;-91
2021/04/04 01:07:11;;;;;;;14.30;11.63;;;;;;;2.78;68.62;96231.31;5099674;28;20027;-91
2021/04/04 01:09:37;;;;;;;14.98;12.00;;;;;;;2.41;67.87;96171.38;5098624;28;20042;-90
2021/04/04 01:12:08;;;;;;;14.98;11.57;;;;;;;2.72;68.45;96222.22;5098543;28;20055;-90
2021/04/04 01:14:38;;;;;;;14.45;11.30;;;;;;;2.99;67.70;96257.78;5099528;28;20496;-90
2021/04/04 01:17:05;;;;;;;14.75;11.38;;;;;;;2.99;67.81;96251.66;5099529;28;20030;-90
2021/04/04 01:19:49;;;;;;;18.35;11.88;;;;;;;3.04;69.39;96246.59;5098323;28;20181;-90
2021/04/04 01:22:35;;;;;;;16.67;11.95;;;;;;;3.12;68.28;96258.69;5099435;28;20024;-89
2021/04/04 01:25:13;;;;;;;13.75;11.27;;;;;;;2.84;67.87;96237.72;5098328;28;20031;-90
2021/04/04 01:27:49;;;;;;;14.35;11.82;;;;;;;3.08;67.73;96257.22;5099325;28;20020;-89
2021/04/04 01:30:18;;;;;;;15.35;12.13;;;;;;;2.82;67.85;96213.22;5099187;28;20031;-90
2021/04/04 01:32:46;;;;;;;13.95;11.50;;;;;;;3.11;68.60;96259.88;5099153;28;20051;-89
2021/04/04 01:35:16;;;;;;;16.05;12.65;;;;;;;2.93;68.86;96232.59;5098130;28;20072;-89
2021/04/04 01:37:43;;;;;;;16.60;12.00;;;;;;;3.09;68.52;96256.06;5098192;28;20031;-90
2021/04/04 01:40:14;;;;;;;18.15;12.98;;;;;;;2.61;68.49;96198.28;5098053;28;20362;-90
2021/04/04 01:42:42;;;;;;;16.17;12.65;;;;;;;2.72;68.74;96222.22;5099111;28;20147;-89
2021/04/04 01:45:08;;;;;;;16.15;12.07;;;;;;;2.72;68.80;96209.56;5097893;28;20049;-90
2021/04/04 01:47:35;;;;;;;17.15;12.88;;;;;;;2.63;69.78;96204.72;5097831;28;20055;-90
2021/04/04 01:50:03;;;;;;;16.05;12.98;;;;;;;2.94;70.30;96252.13;5097865;28;20020;-90
2021/04/04 01:52:29;;;;;;;16.33;13.57;;;;;;;2.68;70.23;96219.59;5097178;28;20367;-90
2021/04/04 01:54:56;;;;;;;16.55;13.50;;;;;;;3.03;69.85;96257.72;5097700;28;20024;-90
2021/04/04 01:57:23;;;;;;;17.02;13.82;;;;;;;2.88;69.80;96243.78;5097701;28;20024;-90
2021/04/04 01:59:50;;;;;;;18.85;14.82;;;;;;;2.67;71.77;96222.69;5097561;28;20023;-90
2021/04/04 02:02:16;;;;;;;18.35;14.48;;;;;;;2.93;70.58;96255.97;5097588;28;20032;-89
2021/04/04 02:04:43;;;;;;;17.20;13.75;;;;;;;2.72;71.75;96238.31;5098154;28;20069;-90
2021/04/04 02:07:10;;;;;;;15.77;13.40;;;;;;;2.93;69.89;96262.09;5098507;28;20024;-89
2021/04/04 02:09:38;;;;;;;16.95;13.75;;;;;;;2.52;69.20;96203.41;5114456;28;20020;-90
2021/04/04 02:12:05;;;;;;;18.05;13.75;;;;;;;2.78;69.82;96253.53;5096988;28;20111;-90
2021/04/04 02:14:31;;;;;;;17.63;13.90;;;;;;;2.58;68.75;96212.47;5113064;28;20042;-90
2021/04/04 02:16:57;;;;;;;18.08;13.55;;;;;;;2.86;68.86;96259.53;5097371;28;20020;-90
2021/04/04 02:19:25;;;;;;;16.83;13.98;;;;;;;2.66;68.50;96215.78;5098254;28;20032;-90
2021/04/04 02:21:54;;;;;;;17.90;14.13;;;;;;;2.69;69.09;96228.41;5097216;28;20023;-90
2021/04/04 02:24:22;;;;;;;19.33;14.10;;;;;;;2.75;69.43;96240.94;5097368;28;20028;-90
2021/04/04 02:26:49;;;;;;;20.33;13.95;;;;;;;1.97;68.96;96124.22;5098087;28;20503;-90
2021/04/04 02:29:14;;;;;;;17.08;13.55;;;;;;;2.21;69.39;96168.63;5098110;28;20423;-90
2021/04/04 02:31:45;;;;;;;15.90;13.35;;;;;;;2.45;70.39;96200.81;5096775;28;20031;-90
2021/04/04 02:34:14;;;;;;;17.98;13.73;;;;;;;2.75;72.03;96240.94;5096778;28;20039;-90
2021/04/04 02:36:41;;;;;;;24.95;14.80;;;;;;;2.49;72.93;96198.84;5096906;28;20047;-91
2021/04/04 02:39:23;;;;;;;17.55;13.63;;;;;;;2.46;69.99;96223.78;5097380;28;20047;-91
2021/04/04 02:41:49;;;;;;;19.15;13.75;;;;;;;2.42;71.81;96215.78;5097983;28;20027;-90
2021/04/04 02:44:16;;;;;;;16.77;13.48;;;;;;;2.39;70.68;96232.69;5096822;28;20032;-91
2021/04/04 02:46:48;;;;;;;19.42;14.85;;;;;;;2.55;72.75;96238.19;5096906;28;20032;-91
2021/04/04 02:49:15;;;;;;;16.45;13.82;;;;;;;2.59;71.76;96241.56;5096802;28;20035;-90
2021/04/04 02:51:51;;;;;;;17.02;13.77;;;;;;;2.51;71.17;96245.53;5096700;28;20115;-90
2021/04/04 02:54:21;;;;;;;16.75;13.25;;;;;;;1.90;71.01;96159.16;5096811;28;20044;-91
2021/04/04 02:56:49;;;;;;;14.18;10.35;;;;;;;2.25;69.35;96195.41;5096752;28;20028;-91
2021/04/04 02:59:20;;;;;;;14.32;11.15;;;;;;;2.32;71.20;96225.50;5097601;28;20024;-90
2021/04/04 03:01:48;;;;;;;14.25;11.30;;;;;;;2.16;70.65;96200.50;5096650;28;20028;-90
2021/04/04 03:04:14;;;;;;;17.20;11.73;;;;;;;2.09;70.74;96233.53;5096060;28;20041;-90
2021/04/04 03:06:43;;;;;;;26.08;11.38;;;;;;;2.26;69.66;96269.28;5096520;28;20397;-90
2021/04/04 03:09:10;;;;;;;15.10;10.55;;;;;;;1.71;71.82;96195.41;5097693;28;20016;-90
2021/04/04 03:11:38;;;;;;;12.93;10.00;;;;;;;2.13;72.31;96261.03;5096708;28;20046;-90
2021/04/04 03:14:06;;;;;;;12.35;9.98;;;;;;;1.77;72.76;96236.63;5096604;28;20369;-90
2021/04/04 03:16:34;;;;;;;12.85;10.15;;;;;;;1.44;70.55;96201.47;5096496;28;20044;-90
2021/04/04 03:19:02;;;;;;;12.60;9.38;;;;;;;1.91;70.94;96273.19;5096518;28;20028;-90
2021/04/04 03:21:30;;;;;;;14.35;9.27;;;;;;;1.99;69.99;96264.66;5096483;28;20461;-90
2021/04/04 03:23:57;;;;;;;10.60;8.52;;;;;;;2.02;70.73;96273.78;5097326;28;20063;-90
2021/04/04 03:26:24;;;;;;;12.93;9.40;;;;;;;2.05;71.33;96283.72;5097307;28;20070;-90
2021/04/04 03:28:50;;;;;;;11.40;9.27;;;;;;;1.70;69.68;96250.84;5096252;28;20024;-90
2021/04/04 03:31:16;;;;;;;12.15;7.60;;;;;;;1.69;68.70;96241.31;5096387;28;20032;-90
2021/04/04 03:33:43;;;;;;;9.07;6.50;;;;;;;1.85;67.44;96248.75;5096313;28;20403;-90
2021/04/04 03:36:13;;;;;;;9.02;6.50;;;;;;;1.74;67.24;96224.03;5095931;28;20166;-90
2021/04/04 03:38:39;;;;;;;9.60;6.90;;;;;;;2.13;68.20;96274.44;5097243;28;20408;-90
2021/04/04 03:41:05;;;;;;;8.57;6.22;;;;;;;1.88;68.51;96247.97;5096108;28;20035;-90
2021/04/04 03:43:33;;;;;;;9.90;6.97;;;;;;;1.59;68.58;96191.31;5097108;28;20073;-90
2021/04/04 03:46:02;;;;;;;12.43;7.35;;;;;;;2.06;69.18;96285.97;5096142;28;20118;-91
2021/04/04 03:48:29;;;;;;;9.45;7.45;;;;;;;1.64;68.96;96227.59;5096197;28;20049;-91
2021/04/04 03:50:56;;;;;;;10.98;7.78;;;;;;;1.52;69.08;96242.28;5096254;28;20047;-91
2021/04/04 03:53:25;;;;;;;9.43;7.60;;;;;;;1.15;70.15;96195.66;5096829;28;20036;-91
2021/04/04 03:55:58;;;;;;;10.57;8.65;;;;;;;1.37;71.51;96224.88;5097065;28;20032;-91
2021/04/04 03:58:25;;;;;;;11.02;8.75;;;;;;;1.54;68.21;96272.84;5095717;28;20031;-90
2021/04/04 04:00:52;;;;;;;13.80;10.00;;;;;;;1.10;71.26;96206.06;5095842;28;20032;-91
2021/04/04 04:03:19;;;;;;;12.68;9.60;;;;;;;1.13;71.72;96230.09;5095863;28;20032;-91
2021/04/04 04:05:46;;;;;;;10.65;8.38;;;;;;;1.07;71.46;96239.72;5095953;28;20093;-91
2021/04/04 04:08:12;;;;;;;10.88;8.32;;;;;;;0.94;72.79;96226.06;5095857;28;20027;-91
2021/04/04 04:10:40;;;;;;;10.38;8.48;;;;;;;0.74;71.51;96219.78;5095938;28;20315;-91
2021/04/04 04:13:07;;;;;;;11.82;9.20;;;;;;;1.00;72.05;96269.19;5095863;28;20081;-91
2021/04/04 04:15:32;;;;;;;11.27;8.57;;;;;;;0.63;72.52;96211.84;5097321;28;20431;-91
2021/04/04 04:17:59;;;;;;;12.52;8.60;;;;;;;0.71;73.08;96241.97;5099681;28;20035;-91
2021/04/04 04:20:25;;;;;;;14.05;9.00;;;;;;;0.64;75.52;96228.63;5099473;28;20401;-91
2021/04/04 04:22:52;;;;;;;12.02;8.93;;;;;;;0.91;74.06;96258.22;5099595;28;20020;-91
2021/04/04 04:25:17;;;;;;;13.65;9.00;;;;;;;0.82;74.54;96250.66;5100477;28;20430;-91
2021/04/04 04:27:43;;;;;;;11.75;8.45;;;;;;;0.99;73.08;96273.78;5099450;28;20023;-91
2021/04/04 04:30:10;;;;;;;11.90;8.52;;;;;;;1.14;74.52;96295.06;5100411;28;20043;-91
2021/04/04 04:32:38;;;;;;;11.82;8.80;;;;;;;0.90;74.75;96254.00;5099709;28;20055;-91
2021/04/04 04:35:06;;;;;;;10.88;8.10;;;;;;;0.86;72.44;96247.94;5099290;28;20024;-91
2021/04/04 04:37:34;;;;;;;12.77;8.52;;;;;;;1.10;73.09;96284.41;5099266;28;20034;-91
2021/04/04 04:40:03;;;;;;;10.23;7.90;;;;;;;1.38;72.84;96304.00;5099049;28;20031;-91
2021/04/04 04:42:30;;;;;;;12.48;8.60;;;;;;;1.23;73.08;96306.84;5100149;28;20024;-91
2021/04/04 04:44:56;;;;;;;13.68;8.48;;;;;;;1.01;71.98;96260.00;5099053;28;20055;-90
2021/04/04 04:47:22;;;;;;;10.95;8.38;;;;;;;0.77;72.33;96209.06;5099956;28;20042;-91
2021/04/04 04:49:48;;;;;;;12.57;8.13;;;;;;;0.88;71.97;96250.97;5100068;28;20372;-91
2021/04/04 04:52:14;;;;;;;10.98;8.20;;;;;;;1.19;72.03;96300.00;5098822;28;20132;-90
2021/04/04 04:54:42;;;;;;;12.10;8.57;;;;;;;0.96;72.45;96258.56;5099042;28;20031;-91
2021/04/04 04:57:09;;;;;;;12.63;8.60;;;;;;;0.79;72.09;96240.72;5098902;28;20028;-91
2021/04/04 04:59:36;;;;;;;14.30;9.48;;;;;;;1.10;73.32;96280.97;5098783;28;20367;-90
2021/04/04 05:02:04;;;;;;;10.93;8.25;;;;;;;0.62;73.09;96225.63;5098907;28;20481;-91
2021/04/04 05:04:29;;;;;;;14.77;9.18;;;;;;;0.82;74.44;96241.88;5098835;28;20055;-91
2021/04/04 05:06:56;;;;;;;13.00;8.82;;;;;;;1.14;73.22;96271.75;5098733;28;20319;-91
2021/04/04 05:09:22;;;;;;;13.25;8.90;;;;;;;0.92;71.08;96228.41;5099687;28;20024;-91
2021/04/04 05:11:49;;;;;;;11.52;8.27;;;;;;;1.53;71.51;96306.13;5098669;28;20296;-91
2021/04/04 05:14:15;;;;;;;11.63;9.32;;;;;;;1.82;70.54;96301.22;5099458;28;20467;-91
2021/04/04 05:16:42;;;;;;;12.55;9.57;;;;;;;1.86;69.35;96309.19;5098434;28;20118;-91
2021/04/04 05:19:09;;;;;;;14.73;9.98;;;;;;;1.77;70.92;96282.16;5099260;28;20035;-91
2021/04/04 05:21:36;;;;;;;14.93;10.90;;;;;;;1.07;69.81;96174.75;5098391;28;20434;-90
2021/04/04 05:24:06;;;;;;;13.13;10.65;;;;;;;1.81;70.88;96285.53;5099407;28;20024;-90
2021/04/04 05:26:46;;;;;;;14.10;11.18;;;;;;;2.01;70.56;96304.44;5097381;28;20149;-90
2021/04/04 05:29:15;;;;;;;14.53;10.70;;;;;;;1.91;71.72;96291.94;5098325;28;20020;-90
2021/04/04 05:31:52;;;;;;;13.05;10.30;;;;;;;2.31;71.19;96335.84;5083016;28;20036;-90
2021/04/04 05:34:22;;;;;;;15.02;12.35;;;;;;;1.93;73.80;96294.97;5096577;28;20038;-90
2021/04/04 05:36:59;;;;;;;14.98;12.25;;;;;;;2.31;72.51;96336.59;5097940;28;20059;-90
2021/04/04 05:39:27;;;;;;;11.27;9.27;;;;;;;2.44;70.73;96339.47;5098009;28;20170;-91
2021/04/04 05:41:58;;;;;;;12.95;9.75;;;;;;;2.11;70.45;96279.41;5098044;28;20024;-90
2021/04/04 05:44:30;;;;;;;12.93;9.45;;;;;;;2.50;69.67;96343.22;5098097;28;20024;-90
2021/04/04 05:47:02;;;;;;;11.85;9.27;;;;;;;2.06;70.63;96266.47;5097328;28;20032;-90
2021/04/04 05:49:59;;;;;;;12.50;9.82;;;;;;;2.51;71.74;96342.06;5093472;28;20103;-90
2021/04/04 05:52:48;;;;;;;13.30;10.90;;;;;;;2.36;71.31;96325.41;5070163;28;20378;-89
2021/04/04 05:55:31;;;;;;;12.25;10.02;;;;;;;2.49;69.96;96346.31;5097757;28;20016;-89
2021/04/04 05:58:10;;;;;;;14.88;11.57;;;;;;;2.35;71.82;96321.22;5097735;28;20043;-89
2021/04/04 06:00:41;;;;;;;13.98;11.13;;;;;;;2.52;70.70;96340.16;5098529;28;20483;-90
2021/04/04 06:03:43;;;;;;;14.88;11.23;;;;;;;2.52;69.41;96340.16;5097631;28;20032;-90
2021/04/04 06:06:39;;;;;;;17.98;10.90;;;;;;;2.56;71.34;96354.28;5098518;28;20085;-91
2021/04/04 06:09:14;;;;;;;14.50;11.25;;;;;;;2.54;71.26;96351.97;5097488;28;20399;-90
2021/04/04 06:12:07;;;;;;;15.27;11.60;;;;;;;2.36;71.76;96354.91;5097382;28;20119;-91
2021/04/04 06:14:52;;;;;;;14.25;11.15;;;;;;;2.51;70.55;96350.13;5097635;28;20066;-90
2021/04/04 06:17:32;;;;;;;14.80;10.75;;;;;;;2.61;68.77;96348.44;5098278;28;20020;-91
2021/04/04 06:20:03;;;;;;;13.23;11.23;;;;;;;2.70;69.38;96359.41;5097362;28;20032;-90
2021/04/04 06:22:38;;;;;;;15.43;11.55;;;;;;;2.50;69.67;96331.72;5097183;28;20028;-91
2021/04/04 06:25:41;;;;;;;19.20;13.98;;;;;;;2.64;67.21;96358.34;5080502;28;20064;-90
2021/04/04 06:28:23;;;;;;;17.25;12.88;;;;;;;2.60;67.08;96357.63;5077853;28;20041;-90
2021/04/04 06:31:13;;;;;;;20.63;14.18;;;;;;;2.71;68.73;96362.84;5076858;28;20027;-90
2021/04/04 06:33:45;;;;;;;29.13;16.55;;;;;;;2.60;66.39;96326.22;5076753;28;20310;-90
2021/04/04 06:36:29;;;;;;;15.55;11.75;;;;;;;2.79;64.13;96366.97;5079173;28;20032;-90
2021/04/04 06:39:26;;;;;;;15.35;11.07;;;;;;;2.92;66.49;96370.59;5095404;28;20024;-89
2021/04/04 06:41:51;;;;;;;13.23;10.43;;;;;;;3.03;65.32;96379.22;5082337;28;20016;-89
2021/04/04 06:44:54;;;;;;;14.30;11.18;;;;;;;2.73;63.33;96372.03;5090327;28;20375;-89
2021/04/04 06:47:35;;;;;;;13.13;9.98;;;;;;;2.80;62.46;96374.59;5085638;28;20028;-90
2021/04/04 06:50:22;;;;;;;13.52;10.98;;;;;;;2.63;64.89;96335.38;5083512;28;20021;-90
2021/04/04 06:52:57;;;;;;;13.68;10.95;;;;;;;2.80;63.71;96361.19;5092946;28;20048;-90
2021/04/04 06:55:53;;;;;;;13.73;10.63;;;;;;;2.76;61.41;96378.50;5097596;28;20035;-91
2021/04/04 06:58:42;;;;;;;14.05;11.00;;;;;;;2.91;64.83;96379.81;5096550;28;20031;-89
2021/04/04 07:01:11;;;;;;;12.77;9.70;;;;;;;2.91;60.18;96374.44;5097294;28;20307;-90
2021/04/04 07:03:46;;;;;;;13.50;9.82;;;;;;;2.75;59.95;96363.56;5096273;28;20081;-90
2021/04/04 07:06:23;;;;;;;20.80;13.45;;;;;;;2.67;62.50;96370.22;5101839;28;20332;-91
2021/04/04 07:09:01;;;;;;;15.23;10.07;;;;;;;2.40;60.85;96313.88;5096277;28;20118;-89
2021/04/04 07:11:41;;;;;;;12.80;9.60;;;;;;;2.78;60.58;96374.25;5093998;28;20027;-90
2021/04/04 07:14:45;;;;;;;14.00;10.05;;;;;;;2.47;60.17;96367.41;5095891;28;20028;-91
2021/04/04 07:17:33;;;;;;;11.73;8.80;;;;;;;2.55;60.54;96366.13;5094075;28;20032;-90
2021/04/04 07:20:13;;;;;;;12.52;9.10;;;;;;;2.63;59.78;96359.53;5096094;28;20028;-89
2021/04/04 07:22:53;;;;;;;11.90;9.25;;;;;;;2.67;60.65;96360.25;5096832;28;20066;-89
2021/04/04 07:25:27;;;;;;;10.60;8.70;;;;;;;2.47;58.94;96336.00;5096153;28;20031;-90
2021/04/04 07:27:59;;;;;;;9.05;7.13;;;;;;;2.80;57.57;96366.53;5105661;28;20020;-90
2021/04/04 07:30:42;;;;;;;11.05;8.00;;;;;;;2.54;59.82;96308.31;5096205;28;20051;-91
2021/04/04 07:33:22;;;;;;;12.15;8.45;;;;;;;2.96;60.68;96373.97;5088994;28;20032;-89
2021/04/04 07:35:54;;;;;;;11.32;7.32;;;;;;;3.06;58.07;96377.66;5090765;28;20022;-90
2021/04/04 07:38:35;;;;;;;8.13;6.50;;;;;;;3.23;51.42;96368.56;5096766;28;20059;-89
2021/04/04 07:41:01;;;;;;;;;;;;;;;3.24;53.92;96364.72;5096960;28;20415;-88
2021/04/04 07:43:38;;;;;;;7.83;4.70;;;;;;;3.26;51.59;96340.91;5108329;28;19996;-90
2021/04/04 07:46:11;;;;;;;4.35;3.70;;;;;;;3.23;51.40;96322.94;5089039;28;20776;-90
2021/04/04 07:48:58;;;;;;;4.13;2.38;;;;;;;3.46;49.35;96361.66;5085982;28;20028;-90
2021/04/04 07:51:28;;;;;;;4.15;2.60;;;;;;;3.23;48.68;96351.69;5097328;28;20089;-91
2021/04/04 07:54:00;;;;;;;4.20;2.70;;;;;;;3.79;50.69;96371.44;5099819;28;20052;-90
2021/04/04 07:56:31;;;;;;;4.95;1.90;;;;;;;3.96;49.77;96366.91;5091880;28;20028;-90
2021/04/04 07:59:09;;;;;;;3.75;2.78;;;;;;;4.06;47.08;96370.56;5085222;28;20024;-91
2021/04/04 08:01:44;;;;;;;7.20;3.00;;;;;;;4.00;51.57;96311.16;5099592;28;20123;-90
2021/04/04 08:04:16;;;;;;;4.30;2.60;;;;;;;4.44;47.60;96355.56;5089628;28;20045;-90
2021/04/04 08:06:46;;;;;;;7.43;3.47;;;;;;;4.22;47.42;96334.91;5096217;28;20089;-89
2021/04/04 08:09:31;;;;;;;5.93;3.95;;;;;;;4.44;50.09;96374.38;5099416;28;20047;-89
2021/04/04 08:12:09;;;;;;;5.13;3.33;;;;;;;4.46;49.25;96372.03;5096672;28;20090;-90
2021/04/04 08:14:47;;;;;;;12.60;5.00;;;;;;;4.60;56.63;96344.06;5090732;28;20054;-89
2021/04/04 08:17:13;;;;;;;7.78;4.85;;;;;;;4.18;48.63;96298.09;5099365;28;20024;-88
2021/04/04 08:19:43;;;;;;;6.68;4.85;;;;;;;4.30;48.95;96336.25;5099849;28;20037;-89
2021/04/04 08:22:13;;;;;;;7.60;4.93;;;;;;;4.41;49.05;96340.22;5099467;28;20164;-89
2021/04/04 08:24:51;;;;;;;;;;;;;;;4.55;48.14;96386.84;5100704;28;20026;-90
2021/04/04 08:27:17;;;;;;;8.38;4.68;;;;;;;4.64;49.41;96387.03;5099045;28;19947;-89
2021/04/04 08:29:49;;;;;;;8.15;4.13;;;;;;;4.56;46.47;96388.34;5093954;28;20063;-89
2021/04/04 08:32:25;;;;;;;9.07;4.43;;;;;;;4.09;47.73;96338.22;5098764;28;20030;-88
2021/04/04 08:34:56;;;;;;;6.55;3.95;;;;;;;4.63;47.74;96390.88;5099207;28;20421;-89
2021/04/04 08:37:37;;;;;;;6.60;4.10;;;;;;;4.70;48.92;96393.44;5083296;28;20048;-90
2021/04/04 08:40:06;;;;;;;5.32;3.17;;;;;;;4.76;46.48;96383.69;5100848;28;20032;-88
2021/04/04 08:42:33;;;;;;;5.45;2.83;;;;;;;4.61;44.90;96380.56;5104683;28;20883;-89
2021/04/04 08:45:07;;;;;;;5.88;3.20;;;;;;;4.10;46.56;96334.38;5094265;28;20036;-88
2021/04/04 08:47:35;;;;;;;5.30;4.07;;;;;;;4.20;47.35;96381.00;5099794;28;20024;-89
2021/04/04 08:50:10;;;;;;;5.25;3.55;;;;;;;4.04;46.77;96356.75;5097401;28;20472;-88
2021/04/04 08:52:52;;;;;;;6.85;4.57;;;;;;;3.80;45.91;96313.09;5095330;28;20301;-88
2021/04/04 08:55:22;;;;;;;6.57;4.15;;;;;;;4.22;47.44;96384.06;5100444;28;20318;-88
2021/04/04 08:57:50;;;;;;;4.97;3.92;;;;;;;3.92;46.81;96337.41;5098680;28;20081;-88
2021/04/04 09:00:16;;;;;;;4.57;3.20;;;;;;;4.20;45.30;96387.16;5098475;28;20442;-87
2021/04/04 09:02:55;;;;;;;5.18;3.28;;;;;;;4.13;45.61;96346.97;5095608;28;20020;-89
2021/04/04 09:05:23;;;;;;;3.65;2.70;;;;;;;3.82;40.49;96322.22;5095574;28;20035;-89
2021/04/04 09:07:49;;;;;;;3.58;2.63;;;;;;;4.08;42.78;96334.00;5099734;28;20106;-88
2021/04/04 09:10:17;;;;;;;2.83;2.03;;;;;;;4.08;43.96;96323.25;5094038;28;20026;-88
2021/04/04 09:12:44;;;;;;;5.53;2.30;;;;;;;4.35;45.65;96328.47;5104214;28;20032;-89
2021/04/04 09:15:13;;;;;;;3.42;2.33;;;;;;;4.50;42.80;96325.47;5099312;28;20020;-87
2021/04/04 09:18:01;;;;;;;3.00;1.90;;;;;;;4.79;41.84;96352.47;5095951;28;20091;-88
2021/04/04 09:20:36;;;;;;;3.83;2.00;;;;;;;4.52;39.20;96315.78;5088785;28;20103;-89
2021/04/04 09:23:03;;;;;;;3.63;2.47;;;;;;;4.62;41.75;96320.19;5089182;28;20127;-88
2021/04/04 09:25:31;;;;;;;4.38;2.60;;;;;;;5.11;40.74;96368.66;5092250;28;20043;-89
2021/04/04 09:28:04;;;;;;;5.28;3.58;;;;;;;4.90;41.49;96328.78;5097282;28;20032;-90
2021/04/04 09:30:35;;;;;;;4.05;2.42;;;;;;;5.20;40.60;96333.06;5098080;28;20021;-89
2021/04/04 09:33:08;;;;;;;3.60;2.50;;;;;;;5.72;43.79;96359.84;5078923;28;20028;-88
2021/04/04 09:35:34;;;;;;;4.18;2.60;;;;;;;5.52;41.94;96308.75;5091852;28;20035;-89
2021/04/04 09:38:07;;;;;;;4.43;3.10;;;;;;;5.67;40.96;96340.72;5098235;28;20028;-89
2021/04/04 09:40:33;;;;;;;5.35;2.80;;;;;;;6.17;42.17;96363.66;5110415;28;20152;-88
2021/04/04 09:43:16;;;;;;;9.93;4.03;;;;;;;6.06;40.44;96363.97;5113983;28;20476;-88
2021/04/04 09:45:42;;;;;;;6.50;3.83;;;;;;;5.57;43.04;96320.97;5108540;28;20085;-88
2021/04/04 09:48:20;;;;;;;5.63;3.72;;;;;;;5.76;44.57;96373.97;5098135;28;20028;-89
2021/04/04 09:50:47;;;;;;;5.72;4.18;;;;;;;5.45;45.31;96327.06;5097647;28;20016;-88
2021/04/04 09:53:13;;;;;;;5.03;4.20;;;;;;;5.22;44.66;96317.25;5097364;28;20051;-88
2021/04/04 09:55:45;;;;;;;5.85;4.28;;;;;;;5.22;44.80;96361.09;5097637;28;20024;-88
2021/04/04 09:58:11;;;;;;;5.32;3.97;;;;;;;4.96;48.07;96300.19;5098485;28;20024;-87
2021/04/04 10:00:38;;;;;;;10.32;4.35;;;;;;;5.24;46.93;96307.56;5098957;28;20167;-88
2021/04/04 10:03:18;;;;;;;6.70;4.57;;;;;;;5.75;53.53;96361.69;5096290;28;20064;-89
2021/04/04 10:05:45;;;;;;;7.28;4.72;;;;;;;5.47;50.07;96309.28;5109539;28;20023;-90
2021/04/04 10:08:11;;;;;;;5.90;4.32;;;;;;;5.26;44.47;96375.22;5100307;28;20054;-89
2021/04/04 10:10:38;;;;;;;5.78;4.32;;;;;;;4.84;44.60;96314.31;5093061;28;20029;-90
2021/04/04 10:13:15;;;;;;;8.00;4.03;;;;;;;5.08;44.61;96349.91;5102553;28;20035;-90
2021/04/04 10:15:46;;;;;;;6.07;4.10;;;;;;;4.84;44.30;96330.47;5092774;28;20024;-89
2021/04/04 10:18:13;;;;;;;6.75;4.00;;;;;;;5.13;45.19;96346.72;5097000;28;20077;-89
2021/04/04 10:20:48;;;;;;;5.32;3.72;;;;;;;4.84;44.85;96328.53;5083828;28;20304;-89
2021/04/04 10:23:15;;;;;;;4.97;4.07;;;;;;;5.12;44.70;96331.75;5097276;28;20023;-89
2021/04/04 10:26:00;;;;;;;5.57;3.95;;;;;;;4.91;44.91;96322.22;5097538;28;20046;-90
2021/04/04 10:28:41;;;;;;;7.88;3.70;;;;;;;5.24;43.75;96372.19;5096963;28;20031;-90
2021/04/04 10:31:07;;;;;;;5.43;3.42;;;;;;;5.23;44.64;96341.06;5101150;28;20020;-90
2021/04/04 10:33:32;;;;;;;5.63;3.90;;;;;;;5.13;44.86;96319.78;5098186;28;20031;-90
2021/04/04 10:36:10;;;;;;;6.15;4.10;;;;;;;4.71;44.00;96323.06;5083330;28;20092;-89
2021/04/04 10:38:36;;;;;;;7.72;4.07;;;;;;;4.67;41.89;96327.75;5096768;28;20024;-90
2021/04/04 10:41:02;;;;;;;5.57;3.95;;;;;;;4.97;43.66;96361.69;5084925;28;20078;-93
2021/04/04 10:46:49;;;;;;;6.13;4.22;;;;;;;4.87;42.91;96298.09;5099989;28;20101;-90
2021/04/04 10:49:16;;;;;;;7.25;4.40;;;;;;;4.80;44.33;96303.66;5092541;28;20408;-93
2021/04/04 10:51:42;;;;;;;5.97;4.15;;;;;;;4.95;40.62;96352.50;5086608;28;20027;-92
2021/04/04 10:54:08;;;;;;;6.30;4.38;;;;;;;4.78;41.09;96318.69;5085998;28;20182;-91
2021/04/04 10:56:35;;;;;;;7.75;4.28;;;;;;;4.81;42.66;96297.09;5093056;28;20107;-94
2021/04/04 10:59:03;;;;;;;9.05;4.53;;;;;;;4.60;44.19;96267.97;5093798;28;20024;-90
2021/04/04 11:01:31;;;;;;;6.95;4.25;;;;;;;5.08;42.30;96302.19;5081799;28;20037;-92
2021/04/04 11:03:57;;;;;;;4.93;4.35;;;;;;;4.97;42.14;96277.47;5093576;28;20028;-90
2021/04/04 11:06:22;;;;;;;6.68;4.38;;;;;;;5.27;43.81;96287.09;5097726;28;20019;-91
2021/04/04 11:08:49;;;;;;;7.90;4.30;;;;;;;5.49;42.53;96292.72;5095846;28;20066;-91
2021/04/04 11:11:15;;;;;;;6.13;5.05;;;;;;;5.82;43.83;96320.31;5085809;28;20111;-90
2021/04/04 11:14:15;;;;;;;7.65;4.47;;;;;;;6.06;41.78;96338.94;5106575;28;20032;-88
2021/04/04 11:16:41;;;;;;;6.90;4.72;;;;;;;6.07;44.20;96303.44;5103492;28;20032;-89
2021/04/04 11:19:08;;;;;;;6.47;4.78;;;;;;;6.27;41.74;96339.09;5101479;28;20030;-89
2021/04/04 11:21:45;;;;;;;7.00;5.20;;;;;;;5.96;42.11;96279.50;5108887;28;20027;-89
2021/04/04 11:24:15;;;;;;;8.45;5.43;;;;;;;6.47;40.79;96327.38;5096106;28;20038;-89
2021/04/04 11:27:04;;;;;;;7.03;5.00;;;;;;;6.47;40.91;96320.03;5095505;28;20032;-89
2021/04/04 11:29:43;;;;;;;6.78;4.80;;;;;;;6.18;40.44;96279.66;5096197;28;20089;-88
2021/04/04 11:32:17;;;;;;;6.70;4.63;;;;;;;6.47;41.35;96325.41;5094285;28;20031;-88
2021/04/04 11:34:58;;;;;;;6.50;4.50;;;;;;;6.26;42.51;96275.53;5096093;28;20020;-88
2021/04/04 11:37:26;;;;;;;6.45;4.78;;;;;;;6.65;40.43;96318.72;5091700;28;20472;-89
2021/04/04 11:40:15;;;;;;;6.75;4.43;;;;;;;6.89;40.78;96313.75;5096094;28;20032;-89
2021/04/04 11:42:46;;;;;;;6.18;4.75;;;;;;;6.97;39.95;96323.88;5095941;28;20035;-89
2021/04/04 11:45:13;;;;;;;6.05;4.68;;;;;;;6.75;41.82;96314.94;5085245;28;20096;-90
2021/04/04 11:47:39;;;;;;;6.85;4.57;;;;;;;6.68;41.62;96318.63;5095687;28;20036;-89
2021/04/04 11:50:25;;;;;;;7.57;4.90;;;;;;;6.47;39.58;96289.59;5096826;28;20016;-89
2021/04/04 11:52:52;;;;;;;9.48;4.93;;;;;;;6.16;40.60;96273.91;5087980;28;20051;-89
2021/04/04 11:55:20;;;;;;;6.75;4.82;;;;;;;6.07;42.09;96225.25;5096235;28;20103;-89
2021/04/04 11:57:47;;;;;;;7.65;5.32;;;;;;;6.26;41.96;96262.06;5096795;28;20032;-89